createdAt,value
2022-09-05T00:00:03.693Z,100374.91
2022-09-05T00:02:54.065Z,100374.13
2022-09-05T00:05:41.294Z,100374.16
2022-09-05T00:08:35.163Z,100373.34
2022-09-05T00:11:40.626Z,100378.25
2022-09-05T00:14:14.873Z,100382.44
2022-09-05T00:17:10.850Z,100384.03
2022-09-05T00:24:24.923Z,100373.03
2022-09-05T00:24:32.019Z,100376.53
2022-09-05T00:25:53.901Z,100368.94
2022-09-05T00:28:31.373Z,100376.53
2022-09-05T00:31:54.602Z,100378.97
2022-09-05T00:34:22.496Z,100377.03
2022-09-05T00:36:54.668Z,100371.81
2022-09-05T00:39:30.608Z,100365.91
2022-09-05T00:42:02.686Z,100372.59
2022-09-05T00:44:33.902Z,100364.00
2022-09-05T00:47:07.928Z,100356.19
2022-09-05T00:49:42.272Z,100366.31
2022-09-05T00:52:16.653Z,100352.81
2022-09-05T00:55:17.004Z,100370.56
2022-09-05T00:58:06.153Z,100361.41
2022-09-05T01:00:49.964Z,100359.72
2022-09-05T01:03:50.665Z,100362.31
2022-09-05T01:06:28.155Z,100364.75
2022-09-05T01:09:11.174Z,100362.94
2022-09-05T01:11:57.355Z,100345.13
2022-09-05T01:14:51.591Z,100358.56
2022-09-05T01:17:31.344Z,100355.19
2022-09-05T01:20:20.179Z,100366.25
2022-09-05T01:23:08.593Z,100361.34
2022-09-05T01:26:07.621Z,100345.31
2022-09-05T01:29:16.293Z,100364.69
2022-09-05T01:31:43.870Z,100355.41
2022-09-05T01:34:21.695Z,100360.44
2022-09-05T01:37:06.278Z,100353.53
2022-09-05T01:40:14.866Z,100344.03
2022-09-05T01:42:39.813Z,100358.41
2022-09-05T01:45:20.160Z,100356.69
2022-09-05T01:47:58.874Z,100353.31
2022-09-05T01:50:41.328Z,100355.06
2022-09-05T01:53:27.984Z,100356.00
2022-09-05T01:56:11.865Z,100351.00
2022-09-05T01:58:59.139Z,100354.34
2022-09-05T02:01:36.893Z,100346.56
2022-09-05T02:04:50.263Z,100348.28
2022-09-05T02:07:30.062Z,100345.66
2022-09-05T02:10:19.749Z,100350.53
2022-09-05T02:13:02.388Z,100356.34
2022-09-05T02:15:40.757Z,100349.47
2022-09-05T02:18:18.265Z,100359.47
2022-09-05T02:20:52.477Z,100360.81
2022-09-05T02:23:41.968Z,100365.63
2022-09-05T02:26:19.057Z,100363.09
2022-09-05T02:28:54.072Z,100359.47
2022-09-05T02:31:28.983Z,100366.97
2022-09-05T02:34:04.837Z,100372.84
2022-09-05T02:36:40.866Z,100371.22
2022-09-05T02:45:03.448Z,100377.00
2022-09-05T02:45:07.734Z,100373.47
2022-09-05T02:45:26.590Z,100370.88
2022-09-05T02:48:15.919Z,100376.22
2022-09-05T02:57:24.270Z,100378.22
2022-09-05T02:57:34.736Z,100379.25
2022-09-05T02:57:41.361Z,100372.38
2022-09-05T02:59:56.963Z,100379.38
2022-09-05T03:02:31.160Z,100367.69
2022-09-05T03:05:06.688Z,100383.84
2022-09-05T03:07:47.729Z,100379.38
2022-09-05T03:10:53.358Z,100375.94
2022-09-05T03:13:54.688Z,100377.09
2022-09-05T03:17:14.953Z,100369.59
2022-09-05T03:20:25.484Z,100371.25
2022-09-05T03:23:37.577Z,100373.00
2022-09-05T03:26:51.153Z,100371.41
2022-09-05T03:30:01.247Z,100372.25
2022-09-05T03:33:17.250Z,100373.22
2022-09-05T03:36:22.108Z,100381.66
2022-09-05T03:39:19.165Z,100380.78
2022-09-05T03:42:04.221Z,100382.44
2022-09-05T03:44:54.453Z,100374.88
2022-09-05T03:48:05.007Z,100380.81
2022-09-05T03:57:08.334Z,100381.72
2022-09-05T03:57:28.226Z,100387.56
2022-09-05T03:57:38.561Z,100389.94
2022-09-05T04:00:12.121Z,100388.16
2022-09-05T04:08:06.332Z,100389.06
2022-09-05T04:08:17.042Z,100399.00
2022-09-05T04:08:43.557Z,100393.94
2022-09-05T04:11:17.408Z,100394.66
2022-09-05T04:13:51.229Z,100397.09
2022-09-05T04:16:25.048Z,100398.66
2022-09-05T04:18:55.978Z,100391.81
2022-09-05T04:21:28.750Z,100402.88
2022-09-05T04:24:08.386Z,100406.25
2022-09-05T04:26:58.625Z,100402.63
2022-09-05T04:29:38.273Z,100410.88
2022-09-05T04:32:19.697Z,100403.81
2022-09-05T04:35:04.917Z,100410.81
2022-09-05T04:37:48.585Z,100409.44
2022-09-05T04:40:36.898Z,100399.50
2022-09-05T04:43:10.975Z,100410.56
2022-09-05T04:45:43.671Z,100417.22
2022-09-05T04:48:21.510Z,100423.66
2022-09-05T04:51:07.609Z,100424.94
2022-09-05T04:54:16.316Z,100423.81
2022-09-05T04:56:49.761Z,100422.03
2022-09-05T05:01:37.934Z,100429.81
2022-09-05T05:06:03.128Z,100430.34
2022-09-05T05:06:15.301Z,100430.34
2022-09-05T05:08:36.458Z,100430.44
2022-09-05T05:17:57.651Z,100430.91
2022-09-05T05:18:03.250Z,100425.63
2022-09-05T05:18:16.392Z,100432.81
2022-09-05T05:20:40.445Z,100421.38
2022-09-05T05:22:54.693Z,100430.66
2022-09-05T05:25:23.515Z,100435.16
2022-09-05T05:28:10.289Z,100440.22
2022-09-05T05:30:54.064Z,100439.28
2022-09-05T05:33:35.698Z,100442.66
2022-09-05T05:36:08.188Z,100437.66
2022-09-05T05:38:44.716Z,100435.34
2022-09-05T05:41:21.368Z,100438.00
2022-09-05T05:43:52.446Z,100438.88
2022-09-05T05:46:32.190Z,100439.84
2022-09-05T05:49:27.406Z,100450.09
2022-09-05T05:52:09.653Z,100442.56
2022-09-05T05:54:43.355Z,100447.72
2022-09-05T05:57:36.208Z,100446.16
2022-09-05T06:00:27.399Z,100443.78
2022-09-05T06:03:38.817Z,100452.34
2022-09-05T06:06:19.155Z,100453.25
2022-09-05T06:14:47.996Z,100441.50
2022-09-05T06:15:01.326Z,100448.34
2022-09-05T06:15:42.704Z,100448.38
2022-09-05T06:18:31.772Z,100450.84
2022-09-05T06:22:09.973Z,100452.53
2022-09-05T06:25:16.175Z,100459.19
2022-09-05T06:28:07.141Z,100458.31
2022-09-05T06:30:57.278Z,100456.75
2022-09-05T06:33:56.816Z,100459.28
2022-09-05T06:36:43.910Z,100458.41
2022-09-05T06:39:17.307Z,100463.50
2022-09-05T06:42:02.372Z,100464.41
2022-09-05T06:45:26.922Z,100460.19
2022-09-05T06:48:01.986Z,100466.06
2022-09-05T06:51:02.054Z,100466.00
2022-09-05T06:53:58.741Z,100467.00
2022-09-05T06:57:07.079Z,100463.81
2022-09-05T07:00:05.431Z,100468.97
2022-09-05T07:02:59.581Z,100473.28
2022-09-05T07:05:40.288Z,100471.69
2022-09-05T07:08:35.734Z,100477.63
2022-09-05T07:11:16.349Z,100465.88
2022-09-05T07:14:05.054Z,100464.28
2022-09-05T07:16:47.581Z,100475.38
2022-09-05T07:19:26.857Z,100471.25
2022-09-05T07:22:47.103Z,100463.63
2022-09-05T07:25:11.298Z,100473.00
2022-09-05T07:28:27.102Z,100475.56
2022-09-05T07:30:51.594Z,100478.09
2022-09-05T07:33:22.821Z,100484.88
2022-09-05T07:35:52.628Z,100483.22
2022-09-05T07:38:38.104Z,100479.00
2022-09-05T07:41:23.442Z,100481.59
2022-09-05T07:43:56.629Z,100469.84
2022-09-05T07:46:28.643Z,100478.41
2022-09-05T07:49:02.725Z,100474.25
2022-09-05T07:56:25.511Z,100471.75
2022-09-05T07:56:51.885Z,100475.19
2022-09-05T07:57:31.203Z,100480.28
2022-09-05T08:00:07.488Z,100478.63
2022-09-05T08:02:54.763Z,100460.00
2022-09-05T08:05:34.898Z,100479.53
2022-09-05T08:08:10.241Z,100477.91
2022-09-05T08:11:22.202Z,100471.97
2022-09-05T08:13:49.739Z,100469.50
2022-09-05T08:16:21.492Z,100461.06
2022-09-05T08:18:55.380Z,100459.41
2022-09-05T08:21:28.738Z,100461.13
2022-09-05T08:24:05.605Z,100463.72
2022-09-05T08:26:47.459Z,100462.00
2022-09-05T08:29:30.807Z,100461.19
2022-09-05T08:32:08.384Z,100462.03
2022-09-05T08:34:44.557Z,100456.09
2022-09-05T08:37:20.836Z,100437.47
2022-09-05T08:40:11.018Z,100450.19
2022-09-05T08:43:22.820Z,100454.41
2022-09-05T08:46:40.696Z,100451.88
2022-09-05T08:48:44.154Z,100446.78
2022-09-05T08:51:25.796Z,100452.72
2022-09-05T08:54:19.504Z,100438.31
2022-09-05T08:56:59.400Z,100435.78
2022-09-05T08:59:47.821Z,100434.09
2022-09-05T09:02:55.563Z,100429.03
2022-09-05T09:06:13.847Z,100423.97
2022-09-05T09:09:09.350Z,100428.19
2022-09-05T09:11:42.454Z,100421.41
2022-09-05T09:14:31.936Z,100413.78
2022-09-05T09:17:06.772Z,100421.41
2022-09-05T09:19:46.925Z,100419.72
2022-09-05T09:22:21.722Z,100429.03
2022-09-05T09:25:12.060Z,100424.81
2022-09-05T09:28:46.949Z,100416.34
2022-09-05T09:30:58.133Z,100419.72
2022-09-05T09:33:36.657Z,100414.63
2022-09-05T09:36:12.012Z,100415.50
2022-09-05T09:38:56.173Z,100411.25
2022-09-05T09:42:01.803Z,100407.00
2022-09-05T09:45:22.487Z,100417.19
2022-09-05T09:48:33.428Z,100410.41
2022-09-05T09:51:30.391Z,100404.47
2022-09-05T09:54:16.264Z,100397.69
2022-09-05T09:57:17.711Z,100405.28
2022-09-05T10:00:05.055Z,100401.03
2022-09-05T10:05:44.177Z,100394.25
2022-09-05T10:10:49.915Z,100397.59
2022-09-05T10:11:08.156Z,100401.88
2022-09-05T10:12:50.772Z,100406.06
2022-09-05T10:15:31.432Z,100400.16
2022-09-05T10:18:36.903Z,100394.19
2022-09-05T10:21:40.268Z,100398.44
2022-09-05T10:24:38.557Z,100385.72
2022-09-05T10:27:38.803Z,100385.66
2022-09-05T10:30:16.790Z,100390.75
2022-09-05T10:35:08.087Z,100381.41
2022-09-05T10:36:25.630Z,100378.84
2022-09-05T10:39:15.569Z,100365.28
2022-09-05T10:41:50.852Z,100372.00
2022-09-05T10:44:33.142Z,100365.25
2022-09-05T10:47:16.374Z,100368.63
2022-09-05T10:49:46.484Z,100361.81
2022-09-05T10:52:19.720Z,100355.78
2022-09-05T10:55:15.113Z,100349.88
2022-09-05T10:57:59.717Z,100348.19
2022-09-05T11:02:20.977Z,100356.66
2022-09-05T11:03:46.631Z,100352.41
2022-09-05T11:06:24.597Z,100345.59
2022-09-05T11:09:03.206Z,100349.81
2022-09-05T11:11:46.153Z,100348.06
2022-09-05T11:14:36.349Z,100342.94
2022-09-05T11:17:16.184Z,100327.66
2022-09-05T11:19:46.665Z,100325.97
2022-09-05T11:22:22.975Z,100325.09
2022-09-05T11:24:56.478Z,100325.91
2022-09-05T11:27:33.961Z,100325.81
2022-09-05T11:30:06.950Z,100323.28
2022-09-05T11:39:55.848Z,100312.94
2022-09-05T11:39:58.915Z,100316.47
2022-09-05T11:40:04.428Z,100315.59
2022-09-05T11:42:21.583Z,100324.81
2022-09-05T11:45:41.179Z,100318.84
2022-09-05T11:48:41.893Z,100310.34
2022-09-05T11:51:51.735Z,100321.28
2022-09-05T11:54:54.265Z,100323.81
2022-09-05T11:57:35.078Z,100316.09
2022-09-05T12:00:33.665Z,100316.06
2022-09-05T12:03:58.901Z,100319.28
2022-09-05T12:07:00.537Z,100314.88
2022-09-05T12:09:45.376Z,100317.25
2022-09-05T12:12:32.788Z,100306.97
2022-09-05T12:15:26.012Z,100310.97
2022-09-05T12:18:19.043Z,100302.34
2022-09-05T12:21:14.469Z,100305.66
2022-09-05T12:25:25.517Z,100307.28
2022-09-05T12:27:42.196Z,100303.69
2022-09-05T12:29:59.869Z,100298.28
2022-09-05T12:34:45.002Z,100291.31
2022-09-05T12:36:10.227Z,100285.91
2022-09-05T12:41:32.699Z,100288.16
2022-09-05T12:41:46.269Z,100285.22
2022-09-05T12:44:51.740Z,100281.94
2022-09-05T12:47:23.972Z,100283.75
2022-09-05T12:50:15.141Z,100278.16
2022-09-05T12:52:46.413Z,100267.59
2022-09-05T12:55:26.018Z,100274.25
2022-09-05T13:03:01.032Z,100267.44
2022-09-05T13:03:06.942Z,100267.53
2022-09-05T13:04:16.727Z,100265.56
2022-09-05T13:06:43.527Z,100270.97
2022-09-05T13:09:21.659Z,100272.56
2022-09-05T13:14:55.595Z,100258.38
2022-09-05T13:15:11.461Z,100253.63
2022-09-05T13:17:51.440Z,100255.25
2022-09-05T13:20:25.814Z,100249.19
2022-09-05T13:22:54.781Z,100249.28
2022-09-05T13:25:27.002Z,100253.78
2022-09-05T13:28:01.577Z,100256.47
2022-09-05T13:34:14.785Z,100249.41
2022-09-05T13:38:01.020Z,100250.06
2022-09-05T13:38:10.024Z,100260.03
2022-09-05T13:39:14.148Z,100248.47
2022-09-05T13:41:45.868Z,100244.78
2022-09-05T13:44:26.554Z,100236.97
2022-09-05T13:47:10.584Z,100236.13
2022-09-05T13:50:05.402Z,100235.69
2022-09-05T13:52:39.631Z,100235.06
2022-09-05T13:55:23.622Z,100230.63
2022-09-05T13:57:57.421Z,100233.78
2022-09-05T14:01:17.604Z,100235.38
2022-09-05T14:07:47.357Z,100220.56
2022-09-05T14:10:52.887Z,100225.84
2022-09-05T14:13:26.043Z,100223.56
2022-09-05T14:15:59.019Z,100224.34
2022-09-05T14:18:31.879Z,100228.28
2022-09-05T14:21:16.477Z,100220.28
2022-09-05T14:23:53.621Z,100208.88
2022-09-05T14:26:32.016Z,100198.41
2022-09-05T14:29:06.013Z,100214.75
2022-09-05T14:37:03.439Z,100210.09
2022-09-05T14:37:43.566Z,100210.50
2022-09-05T14:38:09.172Z,100215.06
2022-09-05T14:41:30.868Z,100203.25
2022-09-05T14:44:41.678Z,100200.00
2022-09-05T14:48:03.409Z,100206.97
2022-09-05T14:50:53.620Z,100199.22
2022-09-05T14:56:57.817Z,100200.97
2022-09-05T15:02:47.896Z,100199.72
2022-09-05T15:02:50.549Z,100198.69
2022-09-05T15:05:21.194Z,100188.03
2022-09-05T15:07:58.663Z,100190.84
2022-09-05T15:12:14.175Z,100197.22
2022-09-05T15:13:25.651Z,100197.38
2022-09-05T15:16:02.924Z,100187.03
2022-09-05T15:18:34.891Z,100188.72
2022-09-05T15:21:33.360Z,100186.69
2022-09-05T15:24:12.893Z,100181.50
2022-09-05T15:26:52.866Z,100174.66
2022-09-05T15:29:24.604Z,100179.06
2022-09-05T15:31:58.944Z,100175.94
2022-09-05T15:34:40.119Z,100172.00
2022-09-05T15:37:24.964Z,100168.41
2022-09-05T15:40:22.806Z,100165.59
2022-09-05T15:42:55.341Z,100170.22
2022-09-05T15:45:28.484Z,100168.38
2022-09-05T15:48:17.032Z,100165.72
2022-09-05T15:50:51.077Z,100158.56
2022-09-05T15:53:25.433Z,100163.19
2022-09-05T15:56:00.906Z,100162.81
2022-09-05T15:58:52.838Z,100162.19
2022-09-05T16:01:30.410Z,100159.78
2022-09-05T16:10:26.810Z,100157.34
2022-09-05T16:10:39.109Z,100160.69
2022-09-05T16:10:58.005Z,100155.16
2022-09-05T16:12:49.238Z,100158.63
2022-09-05T16:20:34.592Z,100150.41
2022-09-05T16:23:19.238Z,100147.06
2022-09-05T16:23:32.503Z,100149.09
2022-09-05T16:24:04.150Z,100154.84
2022-09-05T16:26:38.451Z,100148.47
2022-09-05T16:29:18.787Z,100141.25
2022-09-05T16:31:58.227Z,100143.38
2022-09-05T16:34:31.913Z,100143.25
2022-09-05T16:37:09.029Z,100146.50
2022-09-05T16:39:44.968Z,100142.28
2022-09-05T16:42:18.765Z,100137.16
2022-09-05T16:44:52.480Z,100137.31
2022-09-05T16:47:26.022Z,100136.06
2022-09-05T16:50:01.671Z,100140.00
2022-09-05T16:52:38.476Z,100133.59
2022-09-05T16:55:28.467Z,100136.63
2022-09-05T16:58:03.489Z,100139.56
2022-09-05T17:00:58.367Z,100126.56
2022-09-05T17:03:35.663Z,100141.97
2022-09-05T17:06:26.371Z,100143.09
2022-09-05T17:09:09.565Z,100150.13
2022-09-05T17:11:51.034Z,100139.31
2022-09-05T17:14:35.167Z,100142.09
2022-09-05T17:17:20.208Z,100144.78
2022-09-05T17:20:06.002Z,100139.06
2022-09-05T17:25:40.091Z,100146.81
2022-09-05T17:29:28.939Z,100140.25
2022-09-05T17:29:30.889Z,100154.88
2022-09-05T17:31:57.119Z,100149.97
2022-09-05T17:34:43.534Z,100160.31
2022-09-05T17:37:42.824Z,100157.94
2022-09-05T17:40:33.901Z,100158.06
2022-09-05T17:43:04.548Z,100165.84
2022-09-05T17:45:45.218Z,100168.47
2022-09-05T17:48:16.575Z,100166.97
2022-09-05T17:50:50.974Z,100177.16
2022-09-05T17:53:26.367Z,100168.88
2022-09-05T17:56:13.962Z,100186.59
2022-09-05T17:59:07.151Z,100190.97
2022-09-05T18:01:37.547Z,100199.50
2022-09-05T18:04:16.239Z,100199.53
2022-09-05T18:06:59.917Z,100196.16
2022-09-05T18:10:12.924Z,100195.34
2022-09-05T18:13:12.630Z,100196.28
2022-09-05T18:16:10.481Z,100193.00
2022-09-05T18:19:32.037Z,100193.03
2022-09-05T18:24:41.016Z,100208.44
2022-09-05T18:27:37.794Z,100204.22
2022-09-05T18:30:11.690Z,100201.66
2022-09-05T18:32:42.927Z,100201.69
2022-09-05T18:35:26.425Z,100200.94
2022-09-05T18:38:27.457Z,100202.69
2022-09-05T18:41:23.228Z,100198.50
2022-09-05T18:44:12.967Z,100199.38
2022-09-05T18:46:47.436Z,100204.44
2022-09-05T18:50:25.753Z,100203.63
2022-09-05T18:52:17.184Z,100198.53
2022-09-05T18:56:09.811Z,100209.66
2022-09-05T18:57:50.354Z,100208.84
2022-09-05T19:00:33.399Z,100202.91
2022-09-05T19:03:18.883Z,100205.47
2022-09-05T19:05:51.821Z,100203.81
2022-09-05T19:08:28.694Z,100205.56
2022-09-05T19:10:59.368Z,100202.19
2022-09-05T19:13:32.321Z,100196.28
2022-09-05T19:16:08.017Z,100199.69
2022-09-05T19:19:11.275Z,100203.94
2022-09-05T19:22:03.473Z,100201.44
2022-09-05T19:24:45.009Z,100198.13
2022-09-05T19:30:19.321Z,100201.53
2022-09-05T19:36:46.138Z,100201.53
2022-09-05T19:37:08.197Z,100196.50
2022-09-05T19:37:13.891Z,100192.22
2022-09-05T19:39:10.856Z,100191.41
2022-09-05T19:47:29.845Z,100188.84
2022-09-05T19:47:35.044Z,100189.75
2022-09-05T19:47:48.369Z,100186.31
2022-09-05T19:50:11.232Z,100184.69
2022-09-05T19:52:40.264Z,100183.06
2022-09-05T19:55:21.786Z,100193.31
2022-09-05T19:58:19.833Z,100180.59
2022-09-05T20:01:01.454Z,100178.06
2022-09-05T20:03:38.797Z,100166.31
2022-09-05T20:06:29.320Z,100183.19
2022-09-05T20:09:16.098Z,100179.78
2022-09-05T20:11:49.454Z,100184.03
2022-09-05T20:14:24.697Z,100181.50
2022-09-05T20:16:57.799Z,100176.44
2022-09-05T20:19:32.560Z,100177.31
2022-09-05T20:22:21.139Z,100188.34
2022-09-05T20:24:53.965Z,100189.22
2022-09-05T20:27:27.693Z,100182.44
2022-09-05T20:30:00.341Z,100192.66
2022-09-05T20:32:38.783Z,100184.22
2022-09-05T20:38:19.110Z,100183.38
2022-09-05T20:43:18.454Z,100189.28
2022-09-05T20:43:35.019Z,100187.59
2022-09-05T20:43:58.296Z,100180.84
2022-09-05T20:50:38.635Z,100181.69
2022-09-05T20:54:18.046Z,100187.63
2022-09-05T20:54:27.891Z,100188.47
2022-09-05T20:55:39.056Z,100185.09
2022-09-05T20:58:09.572Z,100180.06
2022-09-05T21:00:39.656Z,100182.69
2022-09-05T21:03:09.357Z,100183.59
2022-09-05T21:05:39.718Z,100177.66
2022-09-05T21:08:25.899Z,100184.44
2022-09-05T21:10:56.544Z,100179.34
2022-09-05T21:13:27.732Z,100178.50
2022-09-05T21:15:56.850Z,100175.97
2022-09-05T21:18:33.073Z,100182.72
2022-09-05T21:21:04.798Z,100181.91
2022-09-05T21:24:17.498Z,100191.22
2022-09-05T21:26:50.601Z,100181.03
2022-09-05T21:29:28.128Z,100179.34
2022-09-05T21:32:10.354Z,100187.88
2022-09-05T21:34:45.073Z,100187.03
2022-09-05T21:37:15.273Z,100186.19
2022-09-05T21:39:58.870Z,100189.59
2022-09-05T21:46:52.115Z,100183.69
2022-09-05T21:47:39.458Z,100180.28
2022-09-05T21:48:08.349Z,100190.44
2022-09-05T21:50:42.395Z,100193.81
2022-09-05T21:58:00.792Z,100187.91
2022-09-05T21:59:26.348Z,100187.06
2022-09-05T21:59:33.068Z,100186.19
2022-09-05T22:01:53.978Z,100185.38
2022-09-05T22:04:22.768Z,100195.50
2022-09-05T22:06:54.097Z,100192.94
2022-09-05T22:09:23.585Z,100187.91
2022-09-05T22:11:52.389Z,100186.22
2022-09-05T22:14:22.310Z,100183.66
2022-09-05T22:16:52.491Z,100179.44
2022-09-05T22:19:35.267Z,100176.06
2022-09-05T22:22:15.979Z,100175.22
2022-09-05T22:24:50.804Z,100170.97
2022-09-05T22:27:20.817Z,100174.38
2022-09-05T22:29:50.439Z,100174.38
2022-09-05T22:32:33.716Z,100164.22
2022-09-05T22:35:26.931Z,100170.97
2022-09-05T22:38:00.170Z,100167.59
2022-09-05T22:40:29.513Z,100165.09
2022-09-05T22:42:58.344Z,100167.59
2022-09-05T22:45:26.627Z,100167.59
2022-09-05T22:47:54.956Z,100164.22
2022-09-05T22:50:23.449Z,100163.38
2022-09-05T22:52:53.139Z,100169.28
2022-09-05T22:55:21.007Z,100160.00
2022-09-05T22:57:48.919Z,100160.84
2022-09-05T23:00:16.968Z,100154.06
2022-09-05T23:02:47.881Z,100154.06
2022-09-05T23:05:18.294Z,100154.06
2022-09-05T23:07:46.093Z,100157.44
2022-09-05T23:10:15.401Z,100149.84
2022-09-05T23:12:43.190Z,100141.38
2022-09-05T23:15:11.746Z,100153.22
2022-09-05T23:17:39.529Z,100149.88
2022-09-05T23:20:08.806Z,100145.63
2022-09-05T23:22:36.932Z,100147.34
2022-09-05T23:25:05.472Z,100142.28
2022-09-05T23:27:37.710Z,100143.09
2022-09-05T23:30:07.786Z,100143.94
2022-09-05T23:32:35.745Z,100142.25
2022-09-05T23:35:03.919Z,100143.09
2022-09-05T23:37:31.752Z,100143.97
2022-09-05T23:39:59.633Z,100140.53
2022-09-05T23:42:27.521Z,100143.06
2022-09-05T23:44:56.691Z,100149.81
2022-09-05T23:47:24.509Z,100157.44
2022-09-05T23:49:52.323Z,100145.63
2022-09-05T23:52:20.143Z,100146.44
2022-09-05T23:54:48.127Z,100150.63
2022-09-05T23:57:15.985Z,100146.41
2022-09-05T23:59:43.837Z,100150.66
